Time;durP1;ratioP1;P1;durP2;ratioP2;P2;SDS_P1;SDS_P2;PMS_P1;PMS_P2;Temp;Humidity;BMP_temperature;BMP_pressure;BME280_temperature;BME280_humidity;BME280_pressure;Samples;Min_cycle;Max_cycle;Signal;HPM_P1;HPM_P2
2022/01/06 00:01:01;;;;;;;15.68;3.25;;;5.80;99.90;;;;;;5018720;28;20050;-80
2022/01/06 00:03:28;;;;;;;16.15;1.90;;;5.80;99.90;;;;;;5018997;28;20071;-80
2022/01/06 00:05:55;;;;;;;15.95;3.35;;;5.80;99.90;;;;;;5018581;28;20049;-80
2022/01/06 00:08:21;;;;;;;14.00;2.55;;;5.90;99.90;;;;;;5018529;28;20045;-80
2022/01/06 00:10:48;;;;;;;15.32;2.63;;;5.90;99.90;;;;;;5018455;28;20096;-80
2022/01/06 00:13:18;;;;;;;11.38;1.50;;;5.90;99.90;;;;;;5036752;28;20049;-80
2022/01/06 00:23:07;;;;;;;12.57;1.75;;;5.90;99.90;;;;;;5018685;28;20077;-81
2022/01/06 00:24:07;;;;;;;26.30;2.33;;;6.00;99.90;;;;;;5035985;28;20412;-81
2022/01/06 00:26:32;;;;;;;11.40;2.05;;;5.90;99.90;;;;;;5018351;28;20477;-81
2022/01/06 00:28:58;;;;;;;12.35;1.77;;;5.90;99.90;;;;;;5018294;28;20408;-81
2022/01/06 00:31:23;;;;;;;20.70;2.40;;;5.90;99.90;;;;;;5018115;28;20217;-81
2022/01/06 00:33:49;;;;;;;9.57;1.58;;;5.80;99.90;;;;;;5018336;28;20041;-81
2022/01/06 00:36:15;;;;;;;10.02;1.70;;;5.80;99.90;;;;;;5018364;28;20508;-81
2022/01/06 00:38:40;;;;;;;16.85;2.13;;;5.80;99.90;;;;;;5018055;28;20049;-81
2022/01/06 00:41:06;;;;;;;8.88;1.75;;;5.80;99.90;;;;;;5018097;28;20050;-81
2022/01/06 00:43:32;;;;;;;13.80;2.47;;;5.80;99.90;;;;;;5035665;28;20076;-81
2022/01/06 00:45:57;;;;;;;21.65;2.60;;;5.80;99.90;;;;;;5035451;28;20050;-81
2022/01/06 00:48:23;;;;;;;17.30;2.13;;;5.80;99.90;;;;;;5035245;28;20048;-82
2022/01/06 00:50:49;;;;;;;14.48;1.88;;;5.80;99.90;;;;;;5017283;28;20103;-81
2022/01/06 00:53:14;;;;;;;23.83;2.90;;;5.90;99.90;;;;;;5017776;28;20080;-81
2022/01/06 00:55:40;;;;;;;10.13;2.03;;;5.90;99.90;;;;;;5035518;28;20072;-81
2022/01/06 00:58:06;;;;;;;20.08;2.63;;;5.90;99.90;;;;;;5017957;28;20084;-81
2022/01/06 01:00:40;;;;;;;11.93;1.70;;;5.80;99.90;;;;;;5035250;28;20491;-81
2022/01/06 01:03:13;;;;;;;12.85;2.17;;;5.80;99.90;;;;;;5017575;28;20049;-81
2022/01/06 01:05:40;;;;;;;12.10;2.22;;;5.80;99.90;;;;;;5017579;28;20049;-81
2022/01/06 01:08:07;;;;;;;13.85;2.28;;;5.90;99.90;;;;;;5017626;28;20120;-81
2022/01/06 01:10:33;;;;;;;19.27;2.63;;;5.80;99.90;;;;;;5035148;28;20045;-81
2022/01/06 01:12:59;;;;;;;18.83;1.88;;;5.80;99.90;;;;;;5017253;28;20083;-81
2022/01/06 01:15:26;;;;;;;9.52;1.90;;;5.80;99.90;;;;;;5017571;28;20076;-81
2022/01/06 01:17:52;;;;;;;22.77;2.63;;;5.80;99.90;;;;;;5017478;28;20041;-81
2022/01/06 01:20:19;;;;;;;15.20;2.50;;;5.80;99.90;;;;;;5017564;28;20473;-81
2022/01/06 01:22:46;;;;;;;14.38;2.30;;;5.80;99.90;;;;;;5017274;28;20049;-80
2022/01/06 01:25:12;;;;;;;10.98;2.50;;;5.80;99.90;;;;;;5034562;28;20048;-81
2022/01/06 01:27:41;;;;;;;8.48;1.55;;;5.80;99.90;;;;;;5017045;28;20055;-81
2022/01/06 01:30:14;;;;;;;9.43;1.55;;;5.70;99.90;;;;;;5034862;28;20069;-81
2022/01/06 01:32:46;;;;;;;16.95;1.85;;;5.80;99.90;;;;;;5034857;28;20045;-81
2022/01/06 01:35:12;;;;;;;18.10;2.63;;;5.70;99.90;;;;;;5034882;28;20038;-81
2022/01/06 01:37:38;;;;;;;9.82;1.85;;;5.70;99.90;;;;;;5016916;28;20100;-81
2022/01/06 01:40:06;;;;;;;9.73;2.33;;;5.70;99.90;;;;;;5034736;28;20041;-81
2022/01/06 01:42:33;;;;;;;15.38;2.00;;;5.70;99.90;;;;;;5016756;28;20049;-81
2022/01/06 01:45:01;;;;;;;9.40;1.20;;;5.70;99.90;;;;;;5016529;28;20496;-81
2022/01/06 01:47:31;;;;;;;8.35;1.33;;;5.70;99.90;;;;;;5034439;28;20443;-81
2022/01/06 01:50:10;;;;;;;11.93;1.67;;;5.70;99.90;;;;;;5034129;28;20057;-80
2022/01/06 01:52:41;;;;;;;11.85;1.48;;;5.70;99.90;;;;;;5034346;28;20071;-80
2022/01/06 01:55:08;;;;;;;14.27;2.33;;;5.70;99.90;;;;;;5016615;28;20489;-81
2022/01/06 01:57:34;;;;;;;6.22;1.25;;;5.70;99.90;;;;;;5016602;28;20144;-82
2022/01/06 02:00:01;;;;;;;19.48;1.85;;;5.70;99.90;;;;;;5016572;28;20119;-81
2022/01/06 02:02:28;;;;;;;7.38;1.25;;;5.60;99.90;;;;;;5015968;28;20046;-81
2022/01/06 02:04:54;;;;;;;15.98;2.13;;;5.70;99.90;;;;;;5016210;28;20050;-81
2022/01/06 02:07:19;;;;;;;12.38;1.65;;;5.70;99.90;;;;;;5016320;28;20543;-82
2022/01/06 02:09:45;;;;;;;18.23;2.70;;;5.60;99.90;;;;;;5016580;28;20053;-82
2022/01/06 02:12:29;;;;;;;11.15;1.48;;;5.60;99.90;;;;;;5016605;28;20053;-81
2022/01/06 02:14:55;;;;;;;15.80;1.73;;;5.60;99.90;;;;;;5016634;28;20068;-81
2022/01/06 02:17:21;;;;;;;15.63;1.80;;;5.50;99.90;;;;;;5034076;28;20485;-81
2022/01/06 02:20:00;;;;;;;15.73;2.33;;;5.50;99.90;;;;;;5034024;28;20546;-81
2022/01/06 02:22:26;;;;;;;10.15;2.13;;;5.50;99.90;;;;;;5016960;28;20053;-81
2022/01/06 02:24:53;;;;;;;16.67;2.28;;;5.50;99.90;;;;;;5016396;28;20037;-81
2022/01/06 02:27:22;;;;;;;16.83;2.42;;;5.50;99.90;;;;;;5016480;28;20504;-81
2022/01/06 02:29:49;;;;;;;18.60;1.98;;;5.50;99.90;;;;;;5033853;28;20048;-81
2022/01/06 02:32:16;;;;;;;11.93;1.55;;;5.40;99.90;;;;;;5016015;28;20061;-81
2022/01/06 02:34:46;;;;;;;9.05;1.33;;;5.40;99.90;;;;;;5016151;28;20049;-81
2022/01/06 02:37:13;;;;;;;8.75;1.88;;;5.40;99.90;;;;;;5033783;28;20044;-81
2022/01/06 02:39:40;;;;;;;14.48;1.50;;;5.40;99.90;;;;;;5033705;28;20056;-81
2022/01/06 02:42:06;;;;;;;10.70;1.90;;;5.40;99.90;;;;;;5015957;28;20416;-81
2022/01/06 02:44:33;;;;;;;9.93;1.10;;;5.40;99.90;;;;;;5033734;28;20041;-80
2022/01/06 02:46:58;;;;;;;17.13;1.65;;;5.50;99.90;;;;;;5015741;28;20049;-80
2022/01/06 02:49:24;;;;;;;14.75;2.63;;;5.50;99.90;;;;;;5015667;28;20131;-81
2022/01/06 02:51:51;;;;;;;19.10;4.70;;;5.40;99.90;;;;;;5033607;28;20033;-80
2022/01/06 02:54:19;;;;;;;15.68;1.75;;;5.50;99.90;;;;;;5033610;28;20056;-80
2022/01/06 02:56:44;;;;;;;9.48;1.73;;;5.50;99.90;;;;;;5016079;28;20057;-81
2022/01/06 02:59:10;;;;;;;13.18;2.00;;;5.50;99.90;;;;;;5015669;28;20115;-79
2022/01/06 03:01:41;;;;;;;10.90;1.55;;;5.40;99.90;;;;;;5033434;28;20045;-79
2022/01/06 03:04:07;;;;;;;21.88;2.17;;;5.40;99.90;;;;;;5033532;28;20041;-79
2022/01/06 03:06:33;;;;;;;13.20;1.77;;;5.40;99.90;;;;;;5015660;28;20061;-79
2022/01/06 03:08:59;;;;;;;15.45;2.13;;;5.40;99.90;;;;;;5016050;28;20065;-81
2022/01/06 03:11:26;;;;;;;11.23;2.47;;;5.40;99.90;;;;;;5033374;28;20045;-81
2022/01/06 03:13:55;;;;;;;19.35;2.72;;;5.30;99.90;;;;;;5034127;28;20056;-80
2022/01/06 03:16:21;;;;;;;13.32;2.30;;;5.30;99.90;;;;;;5019456;28;20088;-81
2022/01/06 03:18:47;;;;;;;18.27;2.47;;;5.30;99.90;;;;;;5037288;28;20088;-81
2022/01/06 03:21:13;;;;;;;18.98;2.92;;;5.30;99.90;;;;;;5037318;28;20034;-81
2022/01/06 03:23:39;;;;;;;14.82;2.17;;;5.30;99.90;;;;;;5019360;28;20045;-81
2022/01/06 03:26:05;;;;;;;11.05;2.33;;;5.30;99.90;;;;;;5019629;28;20057;-81
2022/01/06 03:28:31;;;;;;;13.65;2.33;;;5.30;99.90;;;;;;5019223;28;20485;-81
2022/01/06 03:30:56;;;;;;;12.38;2.35;;;5.30;99.90;;;;;;5037117;28;20045;-81
2022/01/06 03:33:22;;;;;;;17.95;2.50;;;5.30;99.90;;;;;;5019283;28;20046;-81
2022/01/06 03:35:48;;;;;;;13.00;2.33;;;5.30;99.90;;;;;;5019235;28;20124;-81
2022/01/06 03:38:14;;;;;;;13.95;2.70;;;5.20;99.90;;;;;;5019266;28;20053;-81
2022/01/06 03:40:40;;;;;;;15.63;3.05;;;5.30;99.90;;;;;;5019475;28;20048;-81
2022/01/06 03:43:06;;;;;;;14.27;2.63;;;5.20;99.90;;;;;;5018958;28;20057;-81
2022/01/06 03:45:33;;;;;;;15.93;2.97;;;5.20;99.90;;;;;;5019356;28;20484;-81
2022/01/06 03:47:59;;;;;;;22.45;2.92;;;5.20;99.90;;;;;;5018811;28;20053;-81
2022/01/06 03:50:25;;;;;;;22.58;2.60;;;5.20;99.90;;;;;;5018875;28;20064;-81
2022/01/06 03:52:50;;;;;;;19.88;3.90;;;5.10;99.90;;;;;;5036761;28;20049;-81
2022/01/06 03:55:17;;;;;;;26.98;4.32;;;5.10;99.90;;;;;;5018904;28;20049;-81
2022/01/06 03:57:44;;;;;;;14.50;2.88;;;5.10;99.90;;;;;;5019058;28;20076;-81
2022/01/06 04:00:13;;;;;;;17.48;2.83;;;5.00;99.90;;;;;;5018706;28;20385;-81
2022/01/06 04:02:39;;;;;;;27.50;4.05;;;5.00;99.90;;;;;;5018750;28;20041;-81
2022/01/06 04:05:06;;;;;;;22.60;4.13;;;5.00;99.90;;;;;;5018874;28;20053;-81
2022/01/06 04:07:32;;;;;;;23.63;3.60;;;4.90;99.90;;;;;;5018839;28;20062;-81
2022/01/06 04:09:58;;;;;;;27.13;4.20;;;4.90;99.90;;;;;;5018475;28;20128;-81
2022/01/06 04:12:24;;;;;;;31.60;4.28;;;4.90;99.90;;;;;;5036355;28;20045;-81
2022/01/06 04:14:50;;;;;;;21.52;2.75;;;4.90;99.90;;;;;;5036332;28;20045;-81
2022/01/06 04:17:16;;;;;;;14.27;2.25;;;4.90;99.90;;;;;;5018445;28;20046;-81
2022/01/06 04:19:42;;;;;;;20.15;2.75;;;4.90;99.90;;;;;;5018417;28;20045;-80
2022/01/06 04:22:07;;;;;;;16.38;2.15;;;4.90;99.90;;;;;;5018708;28;20091;-81
2022/01/06 04:24:34;;;;;;;19.25;2.85;;;4.90;99.90;;;;;;5018221;28;20076;-81
2022/01/06 04:27:00;;;;;;;15.88;2.75;;;4.90;99.90;;;;;;5017218;28;20054;-81
2022/01/06 04:29:26;;;;;;;16.17;3.83;;;4.80;99.90;;;;;;5036052;28;20044;-80
2022/01/06 04:31:52;;;;;;;13.98;2.70;;;4.80;99.90;;;;;;5035939;28;20041;-81
2022/01/06 04:34:17;;;;;;;15.52;2.90;;;4.70;99.90;;;;;;5018250;28;20048;-81
2022/01/06 04:36:48;;;;;;;21.52;2.65;;;4.70;99.90;;;;;;5018174;28;20041;-81
2022/01/06 04:39:14;;;;;;;22.70;2.45;;;4.70;99.90;;;;;;5017949;28;20042;-81
2022/01/06 04:41:40;;;;;;;18.55;2.88;;;4.60;99.90;;;;;;5017970;28;20041;-81
2022/01/06 04:44:06;;;;;;;16.23;2.28;;;4.60;99.90;;;;;;5017867;28;20087;-81
2022/01/06 04:46:31;;;;;;;11.57;1.88;;;4.60;99.90;;;;;;5018071;28;20050;-81
2022/01/06 04:48:57;;;;;;;16.10;2.28;;;4.70;99.90;;;;;;5017737;28;20136;-81
2022/01/06 04:51:22;;;;;;;15.85;2.65;;;4.70;99.90;;;;;;5035600;28;20046;-81
2022/01/06 04:53:48;;;;;;;11.75;2.90;;;4.70;99.90;;;;;;5017934;28;20053;-81
2022/01/06 04:56:14;;;;;;;19.15;2.88;;;4.70;99.90;;;;;;5017727;28;20496;-81
2022/01/06 04:58:40;;;;;;;14.85;2.80;;;4.70;99.90;;;;;;5035407;28;20056;-81
2022/01/06 05:01:05;;;;;;;14.60;2.17;;;4.70;99.90;;;;;;5017917;28;20148;-81
2022/01/06 05:03:31;;;;;;;15.48;2.35;;;4.70;99.90;;;;;;5017910;28;20515;-81
2022/01/06 05:05:57;;;;;;;14.27;2.00;;;4.70;99.90;;;;;;5035211;28;20466;-81
2022/01/06 05:08:22;;;;;;;20.20;3.38;;;4.70;99.90;;;;;;5017714;28;20053;-81
2022/01/06 05:10:48;;;;;;;14.27;2.05;;;4.60;99.90;;;;;;5017407;28;20400;-81
2022/01/06 05:13:13;;;;;;;11.52;2.30;;;4.50;99.90;;;;;;5035144;28;20081;-81
2022/01/06 05:15:39;;;;;;;16.17;2.67;;;4.50;99.90;;;;;;5017396;28;20041;-81
2022/01/06 05:18:05;;;;;;;15.25;2.05;;;4.50;99.90;;;;;;5017456;28;20085;-81
2022/01/06 05:20:30;;;;;;;18.30;3.00;;;4.50;99.90;;;;;;5035059;28;20095;-81
2022/01/06 05:22:57;;;;;;;15.55;4.00;;;4.50;99.90;;;;;;5034835;28;20049;-81
2022/01/06 05:25:28;;;;;;;20.38;2.92;;;4.40;99.90;;;;;;5017039;28;20516;-81
2022/01/06 05:27:54;;;;;;;13.38;4.32;;;4.40;99.90;;;;;;5017419;28;20072;-81
2022/01/06 05:30:21;;;;;;;13.98;2.45;;;4.40;99.90;;;;;;5017360;28;20053;-81
2022/01/06 05:32:47;;;;;;;20.15;3.40;;;4.40;99.90;;;;;;5017150;28;20049;-81
2022/01/06 05:35:13;;;;;;;16.40;2.58;;;4.40;99.90;;;;;;5034710;28;20041;-81
2022/01/06 05:37:38;;;;;;;22.08;3.40;;;4.30;99.90;;;;;;5016789;28;20436;-80
2022/01/06 05:40:05;;;;;;;22.88;3.72;;;4.30;99.90;;;;;;5034468;28;20033;-80
2022/01/06 05:42:31;;;;;;;13.77;2.97;;;4.30;99.90;;;;;;5016774;28;20400;-80
2022/01/06 05:44:56;;;;;;;20.33;3.55;;;4.20;99.90;;;;;;5017162;28;20491;-80
2022/01/06 05:47:22;;;;;;;17.52;2.38;;;4.20;99.90;;;;;;5016982;28;20528;-80
2022/01/06 05:49:48;;;;;;;18.08;3.05;;;4.20;99.90;;;;;;5016419;28;20524;-80
2022/01/06 05:52:14;;;;;;;13.75;2.42;;;4.10;99.90;;;;;;5016893;28;20088;-80
2022/01/06 05:54:39;;;;;;;11.75;2.35;;;4.10;99.90;;;;;;5016865;28;20056;-80
2022/01/06 05:57:06;;;;;;;13.15;2.67;;;4.10;99.90;;;;;;5034414;28;20042;-79
2022/01/06 05:59:32;;;;;;;15.45;2.10;;;4.20;99.90;;;;;;5016862;28;20057;-79
2022/01/06 06:01:59;;;;;;;21.40;2.80;;;4.20;99.90;;;;;;5016555;28;20050;-79
2022/01/06 06:04:24;;;;;;;12.95;2.75;;;4.20;99.90;;;;;;5034276;28;20037;-79
2022/01/06 06:06:50;;;;;;;17.27;2.78;;;4.20;99.90;;;;;;5016283;28;20444;-79
2022/01/06 06:09:16;;;;;;;19.63;2.50;;;4.20;99.90;;;;;;5034121;28;20045;-79
2022/01/06 06:11:41;;;;;;;20.52;4.50;;;4.20;99.90;;;;;;5034219;28;20437;-79
2022/01/06 06:14:07;;;;;;;19.83;3.72;;;4.20;99.90;;;;;;5016562;28;20075;-79
2022/01/06 06:16:33;;;;;;;16.35;3.25;;;4.20;99.90;;;;;;5016381;28;20045;-79
2022/01/06 06:18:59;;;;;;;18.00;3.20;;;4.10;99.90;;;;;;5016137;28;20045;-79
2022/01/06 06:21:24;;;;;;;15.13;1.98;;;4.10;99.90;;;;;;5016175;28;20124;-79
2022/01/06 06:23:50;;;;;;;21.35;2.50;;;4.10;99.90;;;;;;5016162;28;20135;-79
2022/01/06 06:26:16;;;;;;;26.02;2.72;;;4.00;99.90;;;;;;5016046;28;20175;-79
2022/01/06 06:28:42;;;;;;;17.75;2.80;;;4.10;99.90;;;;;;5033941;28;20056;-79
2022/01/06 06:31:08;;;;;;;21.95;4.47;;;4.00;99.90;;;;;;5033788;28;20046;-79
2022/01/06 06:33:34;;;;;;;13.30;2.47;;;4.00;99.90;;;;;;5016357;28;20052;-79
2022/01/06 06:35:59;;;;;;;20.13;3.38;;;4.00;99.90;;;;;;5015952;28;20436;-79
2022/01/06 06:38:25;;;;;;;20.17;4.25;;;3.90;99.90;;;;;;5015918;28;20056;-79
2022/01/06 06:40:51;;;;;;;26.27;3.67;;;3.90;99.90;;;;;;5016236;28;20042;-79
2022/01/06 06:43:17;;;;;;;23.73;3.35;;;3.90;99.90;;;;;;5033792;28;20124;-79
2022/01/06 06:45:43;;;;;;;31.80;4.32;;;3.80;99.90;;;;;;5033617;28;20073;-79
2022/01/06 06:48:10;;;;;;;24.40;3.83;;;3.80;99.90;;;;;;5016015;28;20046;-80
2022/01/06 06:50:35;;;;;;;23.98;4.05;;;3.70;99.90;;;;;;5015324;28;20386;-80
2022/01/06 06:53:07;;;;;;;18.40;2.65;;;3.60;99.90;;;;;;5033715;28;20075;-80
2022/01/06 06:55:33;;;;;;;18.27;4.30;;;3.60;99.90;;;;;;5016152;28;20049;-79
2022/01/06 06:57:58;;;;;;;13.88;2.63;;;3.50;99.90;;;;;;5016100;28;20479;-79
2022/01/06 07:00:24;;;;;;;14.85;3.22;;;3.40;99.90;;;;;;5033475;28;20041;-79
2022/01/06 07:02:50;;;;;;;18.13;2.80;;;3.40;99.90;;;;;;5015700;28;20076;-79
2022/01/06 07:05:15;;;;;;;19.15;3.42;;;3.30;99.90;;;;;;5015830;28;20049;-79
2022/01/06 07:07:42;;;;;;;21.23;3.22;;;3.30;99.90;;;;;;5016016;28;20366;-80
2022/01/06 07:10:08;;;;;;;21.70;3.55;;;3.20;99.90;;;;;;5015958;28;20049;-79
2022/01/06 07:12:42;;;;;;;15.70;3.30;;;3.20;99.90;;;;;;5015974;28;20084;-79
2022/01/06 07:15:09;;;;;;;17.60;2.85;;;3.20;99.90;;;;;;5015913;28;20374;-79
2022/01/06 07:17:35;;;;;;;11.27;3.53;;;3.20;99.90;;;;;;5033186;28;20397;-80
2022/01/06 07:20:01;;;;;;;12.65;2.85;;;3.20;99.90;;;;;;5015595;28;20076;-80
2022/01/06 07:22:26;;;;;;;13.25;2.83;;;3.20;99.90;;;;;;5015869;28;20060;-80
2022/01/06 07:24:52;;;;;;;17.20;3.60;;;3.20;99.90;;;;;;5015856;28;20056;-80
2022/01/06 07:27:18;;;;;;;13.43;2.83;;;3.40;99.90;;;;;;5015629;28;20072;-80
2022/01/06 07:29:44;;;;;;;13.50;2.15;;;3.50;99.90;;;;;;5033279;28;20049;-80
2022/01/06 07:32:09;;;;;;;16.65;2.20;;;3.60;99.90;;;;;;5033024;28;20380;-80
2022/01/06 07:34:35;;;;;;;20.42;4.22;;;3.50;99.90;;;;;;5033147;28;20489;-80
2022/01/06 07:37:01;;;;;;;17.60;3.83;;;3.50;99.90;;;;;;5032941;28;20072;-80
2022/01/06 07:39:27;;;;;;;11.98;2.33;;;3.50;99.90;;;;;;5032680;28;20087;-80
2022/01/06 07:41:53;;;;;;;14.90;2.70;;;3.50;99.90;;;;;;5013968;28;20489;-78
2022/01/06 07:44:18;;;;;;;12.45;2.80;;;3.40;99.90;;;;;;5014714;28;20133;-79
2022/01/06 07:46:45;;;;;;;14.30;2.95;;;3.30;99.90;;;;;;5018398;28;20052;-79
2022/01/06 07:49:11;;;;;;;10.07;2.38;;;3.20;99.90;;;;;;5021400;28;20049;-79
2022/01/06 07:51:37;;;;;;;18.15;2.47;;;3.10;99.90;;;;;;5032538;28;20111;-78
2022/01/06 07:54:03;;;;;;;16.40;2.45;;;3.10;99.90;;;;;;5014896;28;20042;-80
2022/01/06 07:56:29;;;;;;;11.45;2.35;;;3.00;99.90;;;;;;5032549;28;20054;-79
2022/01/06 07:58:55;;;;;;;11.20;2.10;;;2.90;99.90;;;;;;5032552;28;20045;-78
2022/01/06 08:01:22;;;;;;;17.65;2.50;;;2.90;99.90;;;;;;5033911;28;20064;-79
2022/01/06 08:03:47;;;;;;;10.25;1.92;;;2.80;99.90;;;;;;5018495;28;20045;-78
2022/01/06 08:06:14;;;;;;;7.90;2.22;;;2.70;99.90;;;;;;5018421;28;20416;-79
2022/01/06 08:08:41;;;;;;;20.23;2.40;;;2.70;99.90;;;;;;5018286;28;20049;-78
2022/01/06 08:11:06;;;;;;;12.02;2.53;;;2.60;99.90;;;;;;5018216;28;20064;-78
2022/01/06 08:13:32;;;;;;;13.85;2.10;;;2.50;99.90;;;;;;5036054;28;20045;-79
2022/01/06 08:15:58;;;;;;;14.52;3.40;;;2.50;99.90;;;;;;5018033;28;20046;-78
2022/01/06 08:18:24;;;;;;;14.15;2.22;;;2.40;99.90;;;;;;5038339;28;20036;-78
2022/01/06 08:20:50;;;;;;;15.88;2.72;;;2.30;99.90;;;;;;5047302;28;20107;-78
2022/01/06 08:23:15;;;;;;;11.30;3.00;;;2.30;99.90;;;;;;5037861;28;20488;-78
2022/01/06 08:25:41;;;;;;;16.15;2.97;;;2.20;99.90;;;;;;5036811;28;20120;-79
2022/01/06 08:28:07;;;;;;;13.77;2.70;;;2.20;99.90;;;;;;5035972;28;20049;-78
2022/01/06 08:30:33;;;;;;;17.58;2.53;;;2.10;99.90;;;;;;5055226;28;20051;-79
2022/01/06 08:33:00;;;;;;;21.20;3.03;;;2.10;99.90;;;;;;5037805;28;20057;-78
2022/01/06 08:35:26;;;;;;;11.18;1.75;;;2.10;99.90;;;;;;5037554;28;20098;-78
2022/01/06 08:37:52;;;;;;;16.80;2.35;;;2.10;99.90;;;;;;5037736;28;20472;-78
2022/01/06 08:40:18;;;;;;;15.30;2.50;;;2.10;99.90;;;;;;5037702;28;20048;-78
2022/01/06 08:42:46;;;;;;;15.50;2.58;;;2.10;99.90;;;;;;5037460;28;20541;-78
2022/01/06 08:45:12;;;;;;;15.23;2.30;;;2.20;99.90;;;;;;5037527;28;20049;-78
2022/01/06 08:47:38;;;;;;;12.68;2.53;;;2.20;99.90;;;;;;5055277;28;20037;-78
2022/01/06 08:50:04;;;;;;;14.60;2.70;;;2.30;99.90;;;;;;5054874;28;20052;-80
2022/01/06 08:52:29;;;;;;;14.40;2.58;;;2.30;99.90;;;;;;5037598;28;20110;-78
2022/01/06 08:54:55;;;;;;;17.55;2.60;;;2.20;99.90;;;;;;5055482;28;20365;-79
2022/01/06 08:57:21;;;;;;;13.52;3.90;;;2.20;99.90;;;;;;5055476;28;20033;-79
2022/01/06 08:59:47;;;;;;;16.58;2.75;;;2.30;99.90;;;;;;5055136;28;20483;-80
2022/01/06 09:02:13;;;;;;;13.88;2.60;;;2.30;99.90;;;;;;5037243;28;20041;-80
2022/01/06 09:04:39;;;;;;;14.27;2.70;;;2.30;99.90;;;;;;5037352;28;20064;-79
2022/01/06 09:07:04;;;;;;;47.35;30.65;;;2.30;99.90;;;;;;5037127;28;20045;-79
2022/01/06 09:09:30;;;;;;;21.00;12.35;;;2.40;99.90;;;;;;5037250;28;20045;-80
2022/01/06 09:11:56;;;;;;;17.17;2.63;;;2.40;99.90;;;;;;5036870;28;20136;-79
2022/01/06 09:14:25;;;;;;;15.15;3.65;;;2.50;99.90;;;;;;5037257;28;20052;-79
2022/01/06 09:16:53;;;;;;;14.15;3.33;;;2.60;99.90;;;;;;5054785;28;20400;-79
2022/01/06 09:19:18;;;;;;;18.77;3.15;;;2.70;99.90;;;;;;5036854;28;20049;-79
2022/01/06 09:21:44;;;;;;;22.92;3.25;;;2.80;99.90;;;;;;5037043;28;20094;-79
2022/01/06 09:24:10;;;;;;;17.50;2.45;;;2.90;99.90;;;;;;5036978;28;20037;-79
2022/01/06 09:26:37;;;;;;;14.75;3.28;;;2.90;99.90;;;;;;5054797;28;20373;-79
2022/01/06 09:29:05;;;;;;;16.58;2.33;;;3.00;99.90;;;;;;5036743;28;20060;-79
2022/01/06 09:31:32;;;;;;;23.40;2.72;;;3.10;99.90;;;;;;5037135;28;20089;-79
2022/01/06 09:33:59;;;;;;;8.57;1.88;;;3.20;99.90;;;;;;5036908;28;20093;-79
2022/01/06 09:36:27;;;;;;;9.65;2.38;;;3.30;99.90;;;;;;5036717;28;20052;-79
2022/01/06 09:38:54;;;;;;;17.20;3.22;;;3.40;99.90;;;;;;5036775;28;20048;-79
2022/01/06 09:41:20;;;;;;;15.98;2.38;;;3.50;99.90;;;;;;5036726;28;20040;-79
2022/01/06 09:43:48;;;;;;;19.63;3.38;;;3.60;99.90;;;;;;5036742;28;20531;-79
2022/01/06 09:46:14;;;;;;;13.68;3.22;;;3.80;99.90;;;;;;5054148;28;20051;-79
2022/01/06 09:48:40;;;;;;;9.75;2.00;;;3.90;99.90;;;;;;5036387;28;20044;-80
2022/01/06 09:51:08;;;;;;;14.30;2.50;;;4.00;99.90;;;;;;5036451;28;20063;-79
2022/01/06 09:53:33;;;;;;;11.25;2.20;;;4.00;99.90;;;;;;5036784;28;20080;-79
2022/01/06 09:55:59;;;;;;;13.32;2.20;;;4.10;99.90;;;;;;5054104;28;20103;-79
2022/01/06 09:58:27;;;;;;;18.25;2.22;;;4.10;99.90;;;;;;5054189;28;20076;-79
2022/01/06 10:00:55;;;;;;;10.00;1.58;;;4.00;99.90;;;;;;5036450;28;20041;-79
2022/01/06 10:03:31;;;;;;;10.80;2.17;;;4.10;99.90;;;;;;5036338;28;20128;-79
2022/01/06 10:06:16;;;;;;;10.95;1.45;;;4.00;99.90;;;;;;5035628;28;20049;-79
2022/01/06 10:08:53;;;;;;;12.15;2.33;;;4.00;99.90;;;;;;5035638;28;20118;-79
2022/01/06 10:11:21;;;;;;;19.92;2.28;;;3.90;99.90;;;;;;5035675;28;20434;-79
2022/01/06 10:13:55;;;;;;;16.90;2.90;;;4.00;99.90;;;;;;5035497;28;20059;-79
2022/01/06 10:16:21;;;;;;;11.43;2.03;;;3.90;99.90;;;;;;5036082;28;20053;-79
2022/01/06 10:19:07;;;;;;;8.00;1.30;;;3.90;99.90;;;;;;5036144;28;20037;-79
2022/01/06 10:21:57;;;;;;;8.05;1.80;;;3.90;99.90;;;;;;5035773;28;20037;-79
2022/01/06 10:24:25;;;;;;;14.63;3.03;;;3.90;99.90;;;;;;5035512;28;20123;-79
2022/01/06 10:27:06;;;;;;;9.02;2.13;;;3.90;99.90;;;;;;5035533;28;20064;-78
2022/01/06 10:29:44;;;;;;;16.60;1.90;;;3.90;99.90;;;;;;5035677;28;20041;-79
2022/01/06 10:32:15;;;;;;;9.98;2.20;;;4.00;99.90;;;;;;5053257;28;20055;-78
2022/01/06 10:34:52;;;;;;;13.27;4.30;;;4.10;99.90;;;;;;5035663;28;20488;-79
2022/01/06 10:37:48;;;;;;;15.05;1.80;;;4.20;99.90;;;;;;5035865;28;20068;-79
2022/01/06 10:40:17;;;;;;;12.73;2.40;;;4.30;99.90;;;;;;5023843;28;20061;-79
2022/01/06 10:42:47;;;;;;;17.05;2.40;;;4.50;99.90;;;;;;5035567;28;20056;-79
2022/01/06 10:45:18;;;;;;;15.20;3.53;;;4.60;99.90;;;;;;5053266;28;20446;-79
2022/01/06 10:47:46;;;;;;;9.60;2.10;;;4.60;99.90;;;;;;5053375;28;20048;-79
2022/01/06 10:50:15;;;;;;;16.95;2.80;;;4.70;99.90;;;;;;5053170;28;20060;-80
2022/01/06 10:52:50;;;;;;;12.10;2.33;;;4.80;99.90;;;;;;5035601;28;20041;-80
2022/01/06 10:55:26;;;;;;;17.88;3.20;;;4.80;99.90;;;;;;5035797;28;20040;-80
2022/01/06 10:58:02;;;;;;;7.93;2.28;;;4.90;99.90;;;;;;5035335;28;20080;-80
2022/01/06 11:00:29;;;;;;;11.80;2.40;;;4.90;99.90;;;;;;5035298;28;20575;-79
2022/01/06 11:03:22;;;;;;;14.15;4.13;;;4.90;99.90;;;;;;5053282;28;20085;-80
2022/01/06 11:05:57;;;;;;;13.68;2.30;;;4.90;99.90;;;;;;5051977;28;20037;-80
2022/01/06 11:08:31;;;;;;;12.32;2.58;;;4.90;99.90;;;;;;5035285;28;20102;-80
2022/01/06 11:11:16;;;;;;;10.48;3.42;;;4.90;99.90;;;;;;5035233;28;20049;-80
2022/01/06 11:13:46;;;;;;;17.35;2.75;;;4.90;99.90;;;;;;5035524;28;20088;-80
2022/01/06 11:16:15;;;;;;;14.55;2.75;;;5.00;99.90;;;;;;5053129;28;20040;-80
2022/01/06 11:18:55;;;;;;;11.68;2.50;;;5.00;99.90;;;;;;5035191;28;20480;-79
2022/01/06 11:21:31;;;;;;;17.73;3.08;;;5.00;99.90;;;;;;5035439;28;20041;-79
2022/01/06 11:24:08;;;;;;;18.20;2.88;;;5.00;99.90;;;;;;5035489;28;20049;-79
2022/01/06 11:26:34;;;;;;;14.02;4.00;;;5.00;99.90;;;;;;5035055;28;20132;-79
2022/01/06 11:29:01;;;;;;;12.95;2.92;;;5.10;99.90;;;;;;5052959;28;20088;-80
2022/01/06 11:31:40;;;;;;;11.38;2.92;;;5.20;99.90;;;;;;5035263;28;20401;-80
2022/01/06 11:34:20;;;;;;;17.35;2.97;;;5.30;99.90;;;;;;5035391;28;20084;-80
2022/01/06 11:36:50;;;;;;;12.73;2.58;;;5.40;99.90;;;;;;5038727;28;20049;-80
2022/01/06 11:39:30;;;;;;;19.15;3.08;;;5.50;99.90;;;;;;5039113;28;20377;-80
2022/01/06 11:41:57;;;;;;;10.23;2.13;;;5.60;99.90;;;;;;5038706;28;20436;-80
2022/01/06 11:44:30;;;;;;;12.48;2.35;;;5.60;99.90;;;;;;5056729;28;20049;-80
2022/01/06 11:46:58;;;;;;;15.43;2.88;;;5.60;99.90;;;;;;5056554;28;20449;-80
2022/01/06 11:49:36;;;;;;;14.00;2.45;;;5.60;99.90;;;;;;5038604;28;20489;-80
2022/01/06 11:52:08;;;;;;;10.85;2.17;;;5.70;99.90;;;;;;5038653;28;20466;-80
2022/01/06 11:55:04;;;;;;;20.88;3.35;;;5.70;99.90;;;;;;5038588;28;20036;-80
2022/01/06 11:57:35;;;;;;;13.65;2.20;;;5.70;99.90;;;;;;5038815;28;20048;-80
2022/01/06 12:00:17;;;;;;;9.55;2.42;;;5.80;99.90;;;;;;5038626;28;20135;-79
2022/01/06 12:02:45;;;;;;;19.27;2.10;;;5.90;99.90;;;;;;5038905;28;20045;-80
2022/01/06 12:05:11;;;;;;;19.90;4.55;;;6.00;99.90;;;;;;5038274;28;20049;-80
2022/01/06 12:07:49;;;;;;;12.73;1.75;;;6.10;99.90;;;;;;5038282;28;20048;-80
2022/01/06 12:10:15;;;;;;;11.95;2.90;;;6.20;99.90;;;;;;5056381;28;20120;-80
2022/01/06 12:12:40;;;;;;;11.13;2.50;;;6.30;99.90;;;;;;5038314;28;20132;-80
2022/01/06 12:15:07;;;;;;;11.00;2.40;;;6.30;99.90;;;;;;5038472;28;20045;-80
2022/01/06 12:17:32;;;;;;;12.48;1.67;;;6.40;99.90;;;;;;5038073;28;20116;-80
2022/01/06 12:19:58;;;;;;;12.73;2.42;;;6.40;99.90;;;;;;5056128;28;20048;-80
2022/01/06 12:22:26;;;;;;;17.85;2.05;;;6.40;99.90;;;;;;5038053;28;20049;-80
2022/01/06 12:24:59;;;;;;;12.45;1.90;;;6.40;99.90;;;;;;5055823;28;20072;-80
2022/01/06 12:27:28;;;;;;;15.68;2.78;;;6.50;99.90;;;;;;5037935;28;20404;-80
2022/01/06 12:29:54;;;;;;;12.90;2.40;;;6.50;99.90;;;;;;5037860;28;20477;-80
2022/01/06 12:32:20;;;;;;;11.80;3.42;;;6.50;99.90;;;;;;5037769;28;20064;-80
2022/01/06 12:34:56;;;;;;;10.30;2.00;;;6.40;99.90;;;;;;5037786;28;20050;-80
2022/01/06 12:37:29;;;;;;;11.82;2.63;;;6.40;99.90;;;;;;5038232;28;20040;-80
2022/01/06 12:40:00;;;;;;;;;;;6.40;99.90;;;;;;5038012;28;20045;-80
2022/01/06 12:42:26;;;;;;;10.38;1.92;;;6.40;99.90;;;;;;5037669;28;19935;-80
2022/01/06 12:44:52;;;;;;;11.77;1.75;;;6.40;99.90;;;;;;5037601;28;20123;-80
2022/01/06 12:47:19;;;;;;;11.82;1.85;;;6.40;99.90;;;;;;5036791;28;20059;-80
2022/01/06 12:49:45;;;;;;;17.00;1.98;;;6.40;99.90;;;;;;5037398;28;20057;-80
2022/01/06 12:52:11;;;;;;;10.68;2.40;;;6.40;99.90;;;;;;5037441;28;20037;-80
2022/01/06 12:54:38;;;;;;;10.75;1.83;;;6.40;99.90;;;;;;5037163;28;20484;-80
2022/01/06 12:57:06;;;;;;;14.00;2.15;;;6.40;99.90;;;;;;5037382;28;20049;-80